Irishtown, Illinois
Current Conditions -  °F | °C
As of 11:35 AM on Saturday 25 Oct 2014 (Local Time) from KENL Reporting Station
Clear Clear  
Wind Chill: 71°   Ceiling: Unl
Heat Index: 71°   Visibility: 10mi
Dew Point: 60°   Wind: 5mph
Humidity: 68%   Direction: 320°NW
Pressure: 30.03"   Gusts: NA
Location:  38.7527°N, 89.3215°W
Report Text: KENL 251635Z AUTO 32004KT 10SM CLR 22/15 A3003 RMK AO2 T02150153
Loading
Personal Weather Stations






























Interactive Weather Map New forecast layout! Learn more

10-Day Weather Forecast

Advertisements
Track Severe Weather on mobile